Tuesday, September 2, 2014, 1:18 PM EDT

KESN, Easton / Newman Field

Location: Easton, MD, United States Lat: 38.8
Local Time: 1:18 PM EDT (17:18 GMT) Lon: -76.067
Time Zone: US/Eastern Elev: 72 ft

Show me the last for .
Show Decoded

2014-09-02 12:50 METAR KESN 021650Z 26005KT 10SM FEW035 SCT150 34/20 A2999 =
2014-09-02 11:50 METAR KESN 021550Z 23005KT 10SM SCT100 33/22 A3001 =
2014-09-02 09:50 METAR KESN 021350Z 27008KT 10SM SKC 31/23 A3002 =
2014-09-02 08:50 METAR KESN 021250Z 00000KT 10SM SKC 29/25 A3001 =
2014-09-02 07:50 METAR KESN 021150Z 00000KT 10SM SKC 26/26 A3001 =
2014-09-02 06:50 METAR KESN 021050Z 00000KT 10SM SKC 24/24 A3000 =
2014-09-02 06:18 METAR KESN 021021Z AUTO 00000KT 10SM CLR 25/25 A3000 =
2014-09-02 06:17 METAR KESN 021021Z AUTO 00000KT 10SM CLR 25/25 A3000 RMK AO2 T02480248 =
2014-09-02 06:01 METAR KESN 021001Z AUTO 00000KT 10SM CLR 25/25 A2999 RMK AO2 T02450245 =
2014-09-02 05:50 METAR KESN 020950Z 00000KT 10SM SKC 24/24 A2999 =
2014-09-02 05:41 METAR KESN 020941Z AUTO 00000KT 10SM CLR 25/25 A2998 RMK AO2 T02460246 =
2014-09-02 05:18 METAR KESN 020921Z AUTO 00000KT 10SM CLR 25/25 A2998 =
2014-09-02 05:17 METAR KESN 020921Z AUTO 00000KT 10SM CLR 25/25 A2998 RMK AO2 T02450245 =
2014-09-02 05:01 METAR KESN 020901Z AUTO 00000KT 10SM CLR 25/25 A2998 RMK AO2 T02460246 =
2014-09-02 04:41 METAR KESN 020841Z AUTO 00000KT 10SM CLR 24/24 A2998 =
2014-09-02 04:34 METAR KESN 020841Z AUTO 00000KT 10SM CLR 24/24 A2998 RMK AO2 T02440244 =
2014-09-02 04:16 METAR KESN 020821Z AUTO 00000KT 10SM CLR 24/24 A2998 =
2014-09-02 04:16 METAR KESN 020821Z AUTO 00000KT 10SM CLR 24/24 A2998 RMK AO2 T02430243 =
2014-09-02 04:01 METAR KESN 020801Z AUTO 00000KT 10SM CLR 25/25 A2999 RMK AO2 T02480248 =
2014-09-02 03:41 METAR KESN 020741Z AUTO 00000KT 10SM CLR 25/25 A2999 RMK AO2 T02540254 =
2014-09-02 03:17 METAR KESN 020721Z AUTO 00000KT 10SM CLR 26/26 A2999 =
2014-09-02 03:17 METAR KESN 020721Z AUTO 00000KT 10SM CLR 26/26 A2999 RMK AO2 T02550255 =
2014-09-02 03:01 METAR KESN 020701Z AUTO 00000KT 10SM CLR 25/25 A2999 RMK AO2 T02530253 =
2014-09-02 02:41 METAR KESN 020641Z AUTO 00000KT 10SM CLR 26/26 A2999 RMK AO2 T02550255 =
2014-09-02 02:16 METAR KESN 020621Z AUTO 00000KT 10SM CLR 25/25 A3000 =
2014-09-02 02:16 METAR KESN 020621Z AUTO 00000KT 10SM CLR 25/25 A3000 RMK AO2 T02530253 =
2014-09-02 02:01 METAR KESN 020601Z AUTO 00000KT 10SM CLR 26/26 A2999 RMK AO2 T02550255 =
2014-09-02 01:40 METAR KESN 020540Z AUTO 00000KT 10SM CLR 26/26 A3000 RMK AO2 T02560256 =
2014-09-02 01:17 METAR KESN 020520Z AUTO 00000KT 10SM CLR 26/26 A3000 =
2014-09-02 01:17 METAR KESN 020520Z AUTO 00000KT 10SM CLR 26/26 A3000 RMK AO2 T02600256 =
2014-09-02 01:00 METAR KESN 020500Z AUTO 00000KT 10SM CLR 26/26 A3000 RMK AO2 T02600255 =
2014-09-02 00:40 METAR KESN 020440Z AUTO 00000KT 10SM CLR 26/26 A3000 RMK AO2 T02600255 =
2014-09-02 00:18 METAR KESN 020420Z AUTO 00000KT 10SM CLR 26/25 A3001 =
2014-09-02 00:17 METAR KESN 020420Z AUTO 00000KT 10SM CLR 26/25 A3001 RMK AO2 T02600251 =
2014-09-02 00:00 METAR KESN 020400Z AUTO 00000KT 10SM CLR 26/25 A3001 RMK AO2 T02630249 =
2014-09-01 23:40 METAR KESN 020340Z AUTO 00000KT 10SM CLR 26/25 A3001 RMK AO2 T02600249 =
2014-09-01 23:19 METAR KESN 020320Z AUTO 00000KT 10SM CLR 26/25 A3002 =
2014-09-01 23:18 METAR KESN 020320Z AUTO 00000KT 10SM CLR 26/25 A3002 RMK AO2 T02600246 =
2014-09-01 23:00 METAR KESN 020300Z AUTO 00000KT 10SM CLR 26/24 A3001 RMK AO2 T02600242 =
2014-09-01 22:40 METAR KESN 020240Z AUTO 00000KT 10SM CLR 26/24 A3001 RMK AO2 T02640242 =
2014-09-01 20:50 METAR KESN 020050Z 00000KT 10SM SKC 28/24 A3000 =
2014-09-01 19:50 METAR KESN 012350Z 00000KT 10SM SCT070 30/25 A3000 =
2014-09-01 18:53 METAR KESN 012253Z 00000KT 10SM SCT070 31/23 A2998 =
2014-09-01 17:53 METAR KESN 012153Z 23005KT 10SM BKN070 BKN150 32/23 A2998 =
2014-09-01 16:50 METAR KESN 012050Z 23006KT 10SM SCT050 SCT100 BKN200 32/23 A2999 =
2014-09-01 15:50 METAR KESN 011950Z 21007KT 10SM SCT034 SCT200 33/23 A3000 =
2014-09-01 14:50 METAR KESN 011850Z 27006KT 10SM SCT030 33/23 A3001 =
2014-09-01 13:45 METAR KESN 011745Z 21010KT 10SM SCT020 32/24 A3002 =

Support USWX by starting your Amazon purchase here.